createdAt,value
2018-09-14T00:01:04.420Z,5.67
2018-09-14T00:03:39.106Z,5.60
2018-09-14T00:06:13.929Z,5.83
2018-09-14T00:08:48.469Z,5.50
2018-09-14T00:11:23.021Z,5.30
2018-09-14T00:13:57.857Z,6.80
2018-09-14T00:16:32.886Z,6.30
2018-09-14T00:19:07.725Z,6.83
2018-09-14T00:21:42.525Z,7.47
2018-09-14T00:24:17.139Z,9.30
2018-09-14T00:26:51.891Z,8.60
2018-09-14T00:29:26.258Z,9.10
2018-09-14T00:32:01.189Z,9.13
2018-09-14T00:34:35.892Z,9.10
2018-09-14T00:37:10.490Z,9.40
2018-09-14T00:39:45.245Z,9.80
2018-09-14T00:42:19.925Z,8.27
2018-09-14T00:44:54.827Z,8.60
2018-09-14T00:47:29.827Z,8.80
2018-09-14T00:50:04.710Z,9.93
2018-09-14T00:52:39.790Z,9.13
2018-09-14T00:55:14.527Z,9.80
2018-09-14T00:57:49.658Z,9.17
2018-09-14T01:00:24.367Z,9.20
2018-09-14T01:02:59.116Z,9.90
2018-09-14T01:05:33.922Z,10.83
2018-09-14T01:08:08.688Z,10.03
2018-09-14T01:10:43.594Z,9.53
2018-09-14T01:13:18.275Z,9.80
2018-09-14T01:15:52.684Z,9.67
2018-09-14T01:18:27.176Z,10.03
2018-09-14T01:21:01.933Z,9.50
2018-09-14T01:23:36.656Z,9.63
2018-09-14T01:26:11.118Z,9.43
2018-09-14T01:28:45.680Z,10.33
2018-09-14T01:31:20.450Z,10.10
2018-09-14T01:33:55.193Z,9.60
2018-09-14T01:36:30.480Z,10.20
2018-09-14T01:39:10.477Z,9.83
2018-09-14T01:41:45.679Z,10.70
2018-09-14T01:44:20.226Z,10.20
2018-09-14T01:46:54.994Z,10.20
2018-09-14T01:49:29.842Z,10.37
2018-09-14T01:52:04.734Z,9.93
2018-09-14T01:54:39.560Z,9.37
2018-09-14T01:57:15.304Z,9.87
2018-09-14T01:59:50.001Z,10.00
2018-09-14T02:02:24.615Z,10.00
2018-09-14T02:04:59.829Z,10.50
2018-09-14T02:07:34.516Z,9.27
2018-09-14T02:10:09.146Z,10.80
2018-09-14T02:12:43.655Z,10.20
2018-09-14T02:15:18.287Z,10.43
2018-09-14T02:17:53.127Z,11.40
2018-09-14T02:20:27.803Z,10.83
2018-09-14T02:23:02.676Z,10.67
2018-09-14T02:25:37.633Z,11.83
2018-09-14T02:28:12.218Z,11.37
2018-09-14T02:30:46.674Z,10.77
2018-09-14T02:33:21.495Z,10.67
2018-09-14T02:35:55.908Z,11.47
2018-09-14T02:38:30.736Z,11.00
2018-09-14T02:41:06.093Z,11.80
2018-09-14T02:43:41.072Z,10.80
2018-09-14T02:46:16.134Z,11.83
2018-09-14T02:48:50.712Z,11.17
2018-09-14T02:51:25.124Z,10.03
2018-09-14T02:54:00.437Z,10.03
2018-09-14T02:56:35.204Z,10.63
2018-09-14T02:59:10.233Z,10.93
2018-09-14T03:01:45.062Z,11.10
2018-09-14T03:04:19.685Z,11.33
2018-09-14T03:06:54.530Z,10.60
2018-09-14T03:09:29.745Z,10.30
2018-09-14T03:12:04.420Z,10.13
2018-09-14T03:14:39.113Z,10.97
2018-09-14T03:17:14.130Z,10.87
2018-09-14T03:19:48.655Z,10.27
2018-09-14T03:22:23.106Z,10.10
2018-09-14T03:24:57.907Z,9.80
2018-09-14T03:27:32.936Z,10.37
2018-09-14T03:30:08.187Z,9.87
2018-09-14T03:32:44.825Z,10.10
2018-09-14T03:35:19.499Z,10.20
2018-09-14T03:37:54.265Z,10.23
2018-09-14T03:40:28.987Z,9.90
2018-09-14T03:43:04.267Z,9.90
2018-09-14T03:45:42.681Z,10.40
2018-09-14T03:48:17.462Z,9.73
2018-09-14T03:50:52.131Z,10.20
2018-09-14T03:53:27.090Z,9.67
2018-09-14T03:56:02.345Z,10.00
2018-09-14T03:58:37.285Z,10.63
2018-09-14T04:01:12.269Z,10.20
2018-09-14T04:03:47.127Z,10.20
2018-09-14T04:06:21.924Z,9.90
2018-09-14T04:08:56.691Z,10.37
2018-09-14T04:11:31.534Z,11.20
2018-09-14T04:14:06.217Z,9.43
2018-09-14T04:16:41.063Z,10.47
2018-09-14T04:19:16.467Z,9.97
2018-09-14T04:21:51.210Z,10.37
2018-09-14T04:24:25.700Z,10.03
2018-09-14T04:27:00.688Z,10.90
2018-09-14T04:29:35.329Z,10.33
2018-09-14T04:32:09.730Z,11.63
2018-09-14T04:34:44.464Z,11.53
2018-09-14T04:37:19.023Z,10.60
2018-09-14T04:39:53.572Z,10.93
2018-09-14T04:42:30.100Z,10.60
2018-09-14T04:45:05.058Z,11.33
2018-09-14T04:47:39.718Z,11.63
2018-09-14T04:50:14.328Z,12.80
2018-09-14T04:52:48.878Z,12.90
2018-09-14T04:55:23.627Z,16.17
2018-09-14T04:57:58.597Z,17.10
2018-09-14T05:00:33.924Z,19.43
2018-09-14T05:03:08.765Z,21.80
2018-09-14T05:05:43.906Z,25.70
2018-09-14T05:08:19.024Z,23.17
2018-09-14T05:10:53.935Z,26.27
2018-09-14T05:13:28.950Z,29.10
2018-09-14T05:16:04.216Z,29.43
2018-09-14T05:18:39.676Z,25.57
2018-09-14T05:21:14.696Z,26.43
2018-09-14T05:23:49.386Z,23.00
2018-09-14T05:26:24.252Z,22.73
2018-09-14T05:28:59.811Z,20.97
2018-09-14T05:31:35.538Z,19.37
2018-09-14T05:34:10.514Z,19.23
2018-09-14T05:36:45.815Z,17.17
2018-09-14T05:39:20.818Z,18.00
2018-09-14T05:41:56.097Z,17.83
2018-09-14T05:44:31.752Z,18.87
2018-09-14T05:47:07.856Z,20.60
2018-09-14T05:49:43.212Z,21.93
2018-09-14T05:52:17.974Z,20.90
2018-09-14T05:55:09.618Z,21.80
2018-09-14T05:57:45.045Z,22.70
2018-09-14T06:00:19.948Z,26.13
2018-09-14T06:02:54.512Z,22.90
2018-09-14T06:05:30.263Z,23.37
2018-09-14T06:08:06.155Z,23.47
2018-09-14T06:10:41.326Z,23.90
2018-09-14T06:13:21.986Z,20.70
2018-09-14T06:15:57.223Z,19.10
2018-09-14T06:18:32.915Z,19.93
2018-09-14T06:21:08.986Z,22.13
2018-09-14T06:23:45.809Z,23.57
2018-09-14T06:26:20.963Z,26.60
2018-09-14T06:28:56.254Z,24.83
2018-09-14T06:31:32.053Z,24.07
2018-09-14T06:34:07.582Z,25.53
2018-09-14T06:36:42.560Z,28.30
2018-09-14T06:39:19.139Z,32.07
2018-09-14T06:41:59.944Z,30.87
2018-09-14T06:44:35.405Z,29.73
2018-09-14T06:47:10.404Z,31.63
2018-09-14T06:49:49.266Z,32.03
2018-09-14T06:52:24.064Z,31.53
2018-09-14T06:54:59.000Z,31.80
2018-09-14T06:57:34.171Z,30.07
2018-09-14T07:00:09.380Z,27.30
2018-09-14T07:02:44.109Z,30.50
2018-09-14T07:05:37.888Z,28.53
2018-09-14T07:08:14.009Z,29.30
2018-09-14T07:10:56.787Z,27.30
2018-09-14T07:13:33.648Z,30.10
2018-09-14T07:16:29.457Z,26.53
2018-09-14T07:19:20.037Z,25.43
2018-09-14T07:22:00.233Z,28.60
2018-09-14T07:24:42.568Z,29.10
2018-09-14T07:27:52.531Z,28.20
2018-09-14T07:30:42.430Z,28.77
2018-09-14T07:33:17.708Z,29.23
2018-09-14T07:43:01.092Z,30.40
2018-09-14T07:45:50.877Z,32.23
2018-09-14T07:48:25.826Z,31.83
2018-09-14T07:51:00.496Z,32.20
2018-09-14T07:53:35.563Z,30.40
2018-09-14T07:56:10.776Z,30.47
2018-09-14T07:58:45.864Z,30.07
2018-09-14T08:01:20.721Z,31.97
2018-09-14T08:03:55.559Z,29.03
2018-09-14T08:06:30.509Z,29.37
2018-09-14T08:09:10.048Z,30.67
2018-09-14T08:11:45.372Z,30.60
2018-09-14T08:14:20.426Z,30.73
2018-09-14T08:16:54.839Z,28.90
2018-09-14T08:19:29.686Z,29.23
2018-09-14T08:22:04.508Z,30.17
2018-09-14T08:24:39.715Z,29.37
2018-09-14T08:27:14.978Z,30.70
2018-09-14T08:29:49.608Z,29.40
2018-09-14T08:32:24.584Z,29.27
2018-09-14T08:34:59.326Z,28.50
2018-09-14T08:37:34.111Z,30.13
2018-09-14T08:40:09.005Z,26.77
2018-09-14T08:42:44.019Z,29.10
2018-09-14T08:45:18.891Z,26.83
2018-09-14T08:47:54.014Z,28.00
2018-09-14T08:50:29.869Z,28.07
2018-09-14T08:53:06.098Z,46.47
2018-09-14T08:55:40.550Z,31.00
2018-09-14T08:58:15.474Z,28.47
2018-09-14T09:00:51.560Z,27.63
2018-09-14T09:03:26.325Z,28.10
2018-09-14T09:06:07.425Z,27.67
2018-09-14T09:08:42.353Z,26.33
2018-09-14T09:11:17.374Z,24.33
2018-09-14T09:13:52.367Z,24.33
2018-09-14T09:16:27.061Z,25.27
2018-09-14T09:19:01.866Z,22.70
2018-09-14T09:21:37.305Z,23.10
2018-09-14T09:24:12.864Z,26.10
2018-09-14T09:26:51.886Z,25.30
2018-09-14T09:29:26.952Z,23.67
2018-09-14T09:32:01.777Z,22.73
2018-09-14T09:34:37.194Z,21.33
2018-09-14T09:37:12.762Z,20.30
2018-09-14T09:39:47.765Z,22.20
2018-09-14T09:42:22.908Z,21.23
2018-09-14T09:44:57.639Z,21.27
2018-09-14T09:47:32.278Z,23.43
2018-09-14T09:50:08.020Z,24.20
2018-09-14T09:52:42.855Z,23.70
2018-09-14T09:55:19.127Z,22.63
2018-09-14T09:57:54.570Z,21.17
2018-09-14T10:00:34.691Z,20.37
2018-09-14T10:03:15.023Z,22.33
2018-09-14T10:05:55.507Z,23.33
2018-09-14T10:08:30.367Z,22.67
2018-09-14T10:11:05.698Z,22.17
2018-09-14T10:13:40.767Z,21.83
2018-09-14T10:16:16.491Z,23.17
2018-09-14T10:18:51.770Z,23.47
2018-09-14T10:21:26.920Z,24.37
2018-09-14T10:24:01.516Z,22.70
2018-09-14T10:26:36.202Z,23.37
2018-09-14T10:29:11.601Z,22.60
2018-09-14T10:31:46.554Z,23.63
2018-09-14T10:34:21.331Z,22.37
2018-09-14T10:36:58.140Z,21.80
2018-09-14T10:39:33.277Z,23.23
2018-09-14T10:42:09.568Z,21.20
2018-09-14T10:44:45.648Z,21.30
2018-09-14T10:47:22.424Z,21.93
2018-09-14T10:49:58.742Z,19.93
2018-09-14T10:52:33.524Z,20.60
2018-09-14T10:55:07.967Z,21.07
2018-09-14T10:57:42.422Z,21.33
2018-09-14T11:00:17.541Z,20.53
2018-09-14T11:02:52.704Z,18.53
2018-09-14T11:05:27.454Z,18.40
2018-09-14T11:08:02.589Z,17.33
2018-09-14T11:10:37.655Z,16.40
2018-09-14T11:13:20.511Z,15.03
2018-09-14T11:15:58.084Z,15.87
2018-09-14T11:18:35.863Z,15.33
2018-09-14T11:21:23.731Z,15.77
2018-09-14T11:24:01.003Z,15.53
2018-09-14T11:26:40.977Z,14.90
2018-09-14T11:29:30.774Z,15.83
2018-09-14T11:32:33.860Z,14.87
2018-09-14T11:35:33.083Z,14.20
2018-09-14T11:38:15.759Z,14.27
2018-09-14T11:40:51.435Z,14.30
2018-09-14T11:43:43.158Z,15.20
2018-09-14T11:46:26.548Z,14.30
2018-09-14T11:49:01.580Z,14.67
2018-09-14T11:51:36.701Z,13.40
2018-09-14T11:54:12.016Z,14.23
2018-09-14T11:56:47.284Z,13.80
2018-09-14T11:59:22.351Z,12.60
2018-09-14T12:01:57.305Z,13.30
2018-09-14T12:04:32.500Z,13.50
2018-09-14T12:07:07.452Z,12.60
2018-09-14T12:09:42.673Z,12.90
2018-09-14T12:12:17.918Z,12.87
2018-09-14T12:14:53.072Z,12.37
2018-09-14T12:17:28.912Z,12.20
2018-09-14T12:20:23.123Z,11.47
2018-09-14T12:22:58.263Z,10.53
2018-09-14T12:25:33.088Z,9.10
2018-09-14T12:28:10.967Z,9.07
2018-09-14T12:30:46.408Z,9.80
2018-09-14T12:33:21.424Z,9.43
2018-09-14T12:35:56.381Z,9.33
2018-09-14T12:38:31.163Z,8.80
2018-09-14T12:41:05.941Z,8.53
2018-09-14T12:43:41.039Z,9.13
2018-09-14T12:46:15.692Z,9.17
2018-09-14T12:48:50.485Z,9.40
2018-09-14T12:51:25.385Z,9.67
2018-09-14T12:53:59.852Z,9.00
2018-09-14T12:56:34.546Z,8.70
2018-09-14T12:59:09.328Z,8.40
2018-09-14T13:01:44.105Z,8.50
2018-09-14T13:04:18.955Z,8.97
2018-09-14T13:06:53.476Z,8.73
2018-09-14T13:09:28.194Z,9.40
2018-09-14T13:12:03.035Z,8.70
2018-09-14T13:14:37.811Z,9.53
2018-09-14T13:17:13.864Z,8.77
2018-09-14T13:19:58.530Z,8.40
2018-09-14T13:22:33.352Z,8.80
2018-09-14T13:25:08.807Z,7.90
2018-09-14T13:27:44.548Z,8.47
2018-09-14T13:30:20.175Z,7.77
2018-09-14T13:32:55.211Z,7.23
2018-09-14T13:35:30.186Z,7.17
2018-09-14T13:38:04.889Z,7.57
2018-09-14T13:40:40.461Z,6.83
2018-09-14T13:43:16.219Z,6.53
2018-09-14T13:45:51.485Z,6.57
2018-09-14T13:48:26.699Z,6.43
2018-09-14T13:51:01.867Z,6.57
2018-09-14T13:53:38.910Z,6.40
2018-09-14T13:56:14.124Z,6.20
2018-09-14T13:58:48.817Z,6.77
2018-09-14T14:01:24.204Z,5.77
2018-09-14T14:04:01.391Z,5.73
2018-09-14T14:06:36.347Z,4.83
2018-09-14T14:09:25.543Z,5.43
2018-09-14T14:12:02.225Z,5.40
2018-09-14T14:14:39.321Z,4.90
2018-09-14T14:17:14.514Z,5.17
2018-09-14T14:19:49.276Z,5.47
2018-09-14T14:22:24.766Z,5.27
2018-09-14T14:24:59.589Z,5.77
2018-09-14T14:27:34.334Z,5.50
2018-09-14T14:30:09.611Z,5.17
2018-09-14T14:32:44.302Z,4.90
2018-09-14T14:35:19.068Z,5.13
2018-09-14T14:37:53.675Z,5.00
2018-09-14T14:40:28.048Z,4.37
2018-09-14T14:43:04.211Z,4.70
2018-09-14T14:45:38.949Z,4.17
2018-09-14T14:48:13.727Z,4.20
2018-09-14T14:50:48.310Z,4.43
2018-09-14T14:53:22.819Z,4.00
2018-09-14T14:55:57.403Z,4.00
2018-09-14T14:58:32.009Z,3.30
2018-09-14T15:01:06.741Z,3.70
2018-09-14T15:03:41.870Z,3.63
2018-09-14T15:06:16.453Z,4.03
2018-09-14T15:08:51.144Z,4.30
2018-09-14T15:11:25.732Z,4.07
2018-09-14T15:14:00.293Z,4.27
2018-09-14T15:16:38.113Z,4.93
2018-09-14T15:19:15.398Z,5.37
2018-09-14T15:21:49.904Z,4.60
2018-09-14T15:24:24.461Z,4.77
2018-09-14T15:26:58.964Z,4.97
2018-09-14T15:29:33.492Z,4.43
2018-09-14T15:32:08.030Z,4.60
2018-09-14T15:34:42.656Z,4.90
2018-09-14T15:37:17.418Z,4.70
2018-09-14T15:39:51.932Z,4.50
2018-09-14T15:42:26.520Z,4.77
2018-09-14T15:45:01.026Z,5.00
2018-09-14T15:47:35.712Z,5.27
2018-09-14T15:50:11.031Z,5.33
2018-09-14T15:55:04.990Z,5.07
2018-09-14T15:57:39.579Z,5.43
2018-09-14T16:00:23.094Z,5.40
2018-09-14T16:02:57.639Z,5.10
2018-09-14T16:05:32.241Z,5.37
2018-09-14T16:08:07.037Z,5.60
2018-09-14T16:10:41.640Z,5.40
2018-09-14T16:13:16.184Z,5.30
2018-09-14T16:15:50.585Z,5.33
2018-09-14T16:18:25.264Z,5.17
2018-09-14T16:21:00.026Z,5.37
2018-09-14T16:23:34.765Z,6.90
2018-09-14T16:26:09.500Z,8.70
2018-09-14T16:28:44.113Z,8.57
2018-09-14T16:31:18.630Z,8.77
2018-09-14T16:33:53.004Z,10.63
2018-09-14T16:36:27.587Z,13.50
2018-09-14T16:39:02.264Z,12.00
2018-09-14T16:41:36.879Z,13.07
2018-09-14T16:44:11.460Z,12.63
2018-09-14T16:46:47.454Z,13.47
2018-09-14T16:49:22.139Z,14.30
2018-09-14T16:51:57.007Z,14.10
2018-09-14T16:54:31.501Z,14.37
2018-09-14T16:57:06.284Z,15.03
2018-09-14T16:59:40.882Z,15.13
2018-09-14T17:02:16.820Z,16.03
2018-09-14T17:04:51.316Z,16.03
2018-09-14T17:07:25.856Z,16.00
2018-09-14T17:10:00.675Z,15.70
2018-09-14T17:12:35.344Z,14.87
2018-09-14T17:15:09.901Z,15.23
2018-09-14T17:17:44.576Z,15.33
2018-09-14T17:20:19.320Z,15.30
2018-09-14T17:22:53.973Z,15.40
2018-09-14T17:25:28.552Z,14.70
2018-09-14T17:28:03.326Z,13.60
2018-09-14T17:30:37.962Z,14.83
2018-09-14T17:33:12.733Z,14.07
2018-09-14T17:35:47.302Z,15.87
2018-09-14T17:38:22.126Z,13.77
2018-09-14T17:40:56.820Z,14.20
2018-09-14T17:43:31.176Z,13.80
2018-09-14T17:46:06.392Z,14.40
2018-09-14T17:48:41.016Z,14.53
2018-09-14T17:51:15.598Z,14.83
2018-09-14T17:53:50.487Z,15.27
2018-09-14T17:56:25.009Z,13.97
2018-09-14T17:58:59.662Z,14.17
2018-09-14T18:01:34.352Z,14.50
2018-09-14T18:04:09.002Z,14.63
2018-09-14T18:06:43.677Z,14.17
2018-09-14T18:09:18.412Z,13.90
2018-09-14T18:11:52.940Z,14.03
2018-09-14T18:14:27.637Z,12.83
2018-09-14T18:17:02.247Z,12.80
2018-09-14T18:19:36.885Z,14.73
2018-09-14T18:22:11.446Z,12.73
2018-09-14T18:24:45.838Z,13.50
2018-09-14T18:27:20.492Z,12.97
2018-09-14T18:29:55.064Z,13.07
2018-09-14T18:32:34.118Z,13.63
2018-09-14T18:35:09.011Z,12.60
2018-09-14T18:37:43.693Z,13.17
2018-09-14T18:40:18.540Z,13.30
2018-09-14T18:42:53.485Z,12.87
2018-09-14T18:45:28.125Z,12.00
2018-09-14T18:48:02.765Z,12.10
2018-09-14T18:50:37.463Z,11.97
2018-09-14T18:53:12.161Z,12.47
2018-09-14T18:55:48.480Z,12.10
2018-09-14T18:58:23.374Z,10.73
2018-09-14T19:00:58.178Z,10.73
2018-09-14T19:03:32.987Z,10.70
2018-09-14T19:06:07.635Z,10.83
2018-09-14T19:08:42.464Z,11.83
2018-09-14T19:11:17.373Z,9.90
2018-09-14T19:20:08.805Z,10.93
2018-09-14T19:22:43.736Z,10.43
2018-09-14T19:25:19.063Z,9.93
2018-09-14T19:28:30.415Z,9.83
2018-09-14T19:33:46.117Z,9.40
2018-09-14T19:36:20.994Z,10.00
2018-09-14T19:38:55.636Z,11.80
2018-09-14T19:41:33.784Z,10.50
2018-09-14T19:44:08.710Z,11.73
2018-09-14T19:46:45.804Z,11.17
2018-09-14T19:49:20.721Z,11.50
2018-09-14T19:51:55.544Z,11.43
2018-09-14T19:54:34.725Z,11.67
2018-09-14T19:57:10.482Z,11.43
2018-09-14T19:59:45.293Z,10.90
2018-09-14T20:02:26.007Z,10.07
2018-09-14T20:07:40.974Z,9.97
2018-09-14T20:10:29.996Z,9.70
2018-09-14T20:13:07.059Z,10.20
2018-09-14T20:15:41.734Z,10.20
2018-09-14T20:18:16.492Z,10.57
2018-09-14T20:20:53.947Z,10.20
2018-09-14T20:23:29.437Z,10.17
2018-09-14T20:26:04.168Z,11.00
2018-09-14T20:28:40.286Z,10.40
2018-09-14T20:31:16.643Z,11.20
2018-09-14T20:33:53.316Z,10.60
2018-09-14T20:36:28.024Z,10.50
2018-09-14T20:39:03.165Z,11.27
2018-09-14T20:41:38.407Z,10.40
2018-09-14T20:44:13.724Z,11.40
2018-09-14T20:46:48.587Z,10.60
2018-09-14T20:49:23.363Z,10.40
2018-09-14T20:51:58.408Z,11.30
2018-09-14T20:54:33.443Z,11.80
2018-09-14T20:57:10.461Z,11.30
2018-09-14T20:59:52.818Z,10.83
2018-09-14T21:02:27.883Z,9.87
2018-09-14T21:05:02.701Z,11.00
2018-09-14T21:07:37.504Z,12.00
2018-09-14T21:10:12.442Z,12.50
2018-09-14T21:12:48.687Z,13.23
2018-09-14T21:15:23.348Z,13.30
2018-09-14T21:17:58.119Z,13.37
2018-09-14T21:20:32.815Z,12.73
2018-09-14T21:23:07.805Z,12.60
2018-09-14T21:25:42.498Z,12.53
2018-09-14T21:28:19.202Z,11.93
2018-09-14T21:30:54.080Z,14.00
2018-09-14T21:33:28.570Z,14.57
2018-09-14T21:36:03.319Z,14.97
2018-09-14T21:38:38.302Z,16.73
2018-09-14T21:41:13.042Z,15.97
2018-09-14T21:43:47.977Z,14.37
2018-09-14T21:46:22.549Z,14.97
2018-09-14T21:48:57.360Z,15.10
2018-09-14T21:51:31.820Z,15.83
2018-09-14T21:54:06.871Z,15.70
2018-09-14T21:56:41.450Z,15.43
2018-09-14T21:59:15.989Z,14.80
2018-09-14T22:01:50.427Z,14.67
2018-09-14T22:04:27.839Z,14.17
2018-09-14T22:07:18.321Z,14.37
2018-09-14T22:09:55.304Z,13.23
2018-09-14T22:12:41.203Z,13.10
2018-09-14T22:15:22.709Z,13.83
2018-09-14T22:18:17.739Z,13.33
2018-09-14T22:21:00.634Z,13.77
2018-09-14T22:23:40.912Z,14.13
2018-09-14T22:26:36.920Z,14.07
2018-09-14T22:29:27.186Z,13.73
2018-09-14T22:32:22.930Z,14.07
2018-09-14T22:35:13.859Z,14.27
2018-09-14T22:38:09.518Z,12.80
2018-09-14T22:40:51.608Z,14.17
2018-09-14T22:43:46.155Z,15.17
2018-09-14T22:46:49.121Z,14.33
2018-09-14T22:49:45.644Z,14.40
2018-09-14T22:52:46.773Z,14.63
2018-09-14T22:55:22.144Z,14.23
2018-09-14T22:57:56.796Z,14.03
2018-09-14T23:00:37.229Z,12.50
2018-09-14T23:03:12.082Z,13.77
2018-09-14T23:05:46.750Z,14.07
2018-09-14T23:08:21.681Z,13.37
2018-09-14T23:10:56.353Z,13.17
2018-09-14T23:13:31.176Z,13.03
2018-09-14T23:16:05.981Z,13.07
2018-09-14T23:18:40.748Z,13.93
2018-09-14T23:21:15.619Z,14.07
2018-09-14T23:23:50.366Z,13.93
2018-09-14T23:26:25.411Z,12.97
2018-09-14T23:29:00.234Z,13.00
2018-09-14T23:31:34.858Z,13.53
2018-09-14T23:34:09.811Z,13.60
2018-09-14T23:36:44.381Z,14.83
2018-09-14T23:39:19.066Z,14.63
2018-09-14T23:41:53.933Z,14.47
2018-09-14T23:44:28.696Z,14.20
2018-09-14T23:47:03.464Z,16.00
2018-09-14T23:49:38.038Z,15.17
2018-09-14T23:52:12.848Z,14.77
2018-09-14T23:54:47.676Z,16.10
2018-09-14T23:57:22.103Z,15.43
2018-09-14T23:59:58.755Z,15.90
